sensor_id;sensor_type;location;lat;lon;timestamp;temperature;humidity
56076;DHT22;41951;49.022;12.066;2023-10-08T00:01:52;14.60;99.90
56076;DHT22;41951;49.022;12.066;2023-10-08T00:04:21;14.60;99.90
56076;DHT22;41951;49.022;12.066;2023-10-08T00:06:47;14.60;99.90
56076;DHT22;41951;49.022;12.066;2023-10-08T00:09:13;14.60;99.90
56076;DHT22;41951;49.022;12.066;2023-10-08T00:11:40;14.60;99.90
56076;DHT22;41951;49.022;12.066;2023-10-08T00:14:06;14.60;99.90
56076;DHT22;41951;49.022;12.066;2023-10-08T00:16:36;14.70;99.90
56076;DHT22;41951;49.022;12.066;2023-10-08T00:19:07;14.60;99.90
56076;DHT22;41951;49.022;12.066;2023-10-08T00:21:34;14.60;99.90
56076;DHT22;41951;49.022;12.066;2023-10-08T00:24:01;14.60;99.90
56076;DHT22;41951;49.022;12.066;2023-10-08T00:26:31;14.60;99.90
56076;DHT22;41951;49.022;12.066;2023-10-08T00:29:00;14.60;99.90
56076;DHT22;41951;49.022;12.066;2023-10-08T00:31:32;14.60;99.90
56076;DHT22;41951;49.022;12.066;2023-10-08T00:34:03;14.60;99.90
56076;DHT22;41951;49.022;12.066;2023-10-08T00:36:31;14.60;99.90
56076;DHT22;41951;49.022;12.066;2023-10-08T00:38:56;14.60;99.90
56076;DHT22;41951;49.022;12.066;2023-10-08T00:41:26;14.60;99.90
56076;DHT22;41951;49.022;12.066;2023-10-08T00:43:56;14.60;99.90
56076;DHT22;41951;49.022;12.066;2023-10-08T00:46:25;14.60;99.90
56076;DHT22;41951;49.022;12.066;2023-10-08T00:49:17;14.60;99.90
56076;DHT22;41951;49.022;12.066;2023-10-08T00:52:03;14.50;99.90
56076;DHT22;41951;49.022;12.066;2023-10-08T00:54:38;14.50;99.90
56076;DHT22;41951;49.022;12.066;2023-10-08T00:57:19;14.50;99.90
56076;DHT22;41951;49.022;12.066;2023-10-08T00:59:47;14.60;99.90
56076;DHT22;41951;49.022;12.066;2023-10-08T01:02:20;14.60;99.90
56076;DHT22;41951;49.022;12.066;2023-10-08T01:04:50;14.60;99.90
56076;DHT22;41951;49.022;12.066;2023-10-08T01:07:21;14.60;99.90
56076;DHT22;41951;49.022;12.066;2023-10-08T01:09:47;14.60;99.90
56076;DHT22;41951;49.022;12.066;2023-10-08T01:12:21;14.70;99.90
56076;DHT22;41951;49.022;12.066;2023-10-08T01:14:51;14.70;99.90
56076;DHT22;41951;49.022;12.066;2023-10-08T01:17:20;14.80;99.90
56076;DHT22;41951;49.022;12.066;2023-10-08T01:19:50;14.70;99.90
56076;DHT22;41951;49.022;12.066;2023-10-08T01:22:20;14.80;99.90
56076;DHT22;41951;49.022;12.066;2023-10-08T01:24:50;14.70;99.90
56076;DHT22;41951;49.022;12.066;2023-10-08T01:27:16;14.70;99.90
56076;DHT22;41951;49.022;12.066;2023-10-08T01:29:47;14.70;99.90
56076;DHT22;41951;49.022;12.066;2023-10-08T01:32:18;14.50;99.90
56076;DHT22;41951;49.022;12.066;2023-10-08T01:34:45;14.60;99.90
56076;DHT22;41951;49.022;12.066;2023-10-08T01:37:15;14.60;99.90
56076;DHT22;41951;49.022;12.066;2023-10-08T01:39:47;14.60;99.90
56076;DHT22;41951;49.022;12.066;2023-10-08T01:42:15;14.60;99.90
56076;DHT22;41951;49.022;12.066;2023-10-08T01:44:46;14.50;99.90
56076;DHT22;41951;49.022;12.066;2023-10-08T01:47:13;14.50;99.90
56076;DHT22;41951;49.022;12.066;2023-10-08T01:49:39;14.50;99.90
56076;DHT22;41951;49.022;12.066;2023-10-08T01:52:06;14.50;99.90
56076;DHT22;41951;49.022;12.066;2023-10-08T01:54:38;14.50;99.90
56076;DHT22;41951;49.022;12.066;2023-10-08T01:57:04;14.50;99.90
56076;DHT22;41951;49.022;12.066;2023-10-08T01:59:31;14.40;99.90
56076;DHT22;41951;49.022;12.066;2023-10-08T02:01:57;14.40;99.90
56076;DHT22;41951;49.022;12.066;2023-10-08T02:04:23;14.40;99.90
56076;DHT22;41951;49.022;12.066;2023-10-08T02:06:48;14.40;99.90
56076;DHT22;41951;49.022;12.066;2023-10-08T02:09:14;14.40;99.90
56076;DHT22;41951;49.022;12.066;2023-10-08T02:11:44;14.40;99.90
56076;DHT22;41951;49.022;12.066;2023-10-08T02:14:10;14.40;99.90
56076;DHT22;41951;49.022;12.066;2023-10-08T02:16:36;14.40;99.90
56076;DHT22;41951;49.022;12.066;2023-10-08T02:19:02;14.40;99.90
56076;DHT22;41951;49.022;12.066;2023-10-08T02:21:29;14.40;99.90
56076;DHT22;41951;49.022;12.066;2023-10-08T02:23:54;14.40;99.90
56076;DHT22;41951;49.022;12.066;2023-10-08T02:26:20;14.40;99.90
56076;DHT22;41951;49.022;12.066;2023-10-08T02:28:45;14.40;99.90
56076;DHT22;41951;49.022;12.066;2023-10-08T02:31:11;14.40;99.90
56076;DHT22;41951;49.022;12.066;2023-10-08T02:33:37;14.40;99.90
56076;DHT22;41951;49.022;12.066;2023-10-08T02:36:03;14.40;99.90
56076;DHT22;41951;49.022;12.066;2023-10-08T02:38:29;14.40;99.90
56076;DHT22;41951;49.022;12.066;2023-10-08T02:41:03;14.30;99.90
56076;DHT22;41951;49.022;12.066;2023-10-08T02:43:34;14.30;99.90
56076;DHT22;41951;49.022;12.066;2023-10-08T02:46:02;14.30;99.90
56076;DHT22;41951;49.022;12.066;2023-10-08T02:48:33;14.30;99.90
56076;DHT22;41951;49.022;12.066;2023-10-08T02:51:00;14.20;99.90
56076;DHT22;41951;49.022;12.066;2023-10-08T02:53:37;14.20;99.90
56076;DHT22;41951;49.022;12.066;2023-10-08T02:56:02;14.20;99.90
56076;DHT22;41951;49.022;12.066;2023-10-08T02:58:37;14.20;99.90
56076;DHT22;41951;49.022;12.066;2023-10-08T03:01:04;14.20;99.90
56076;DHT22;41951;49.022;12.066;2023-10-08T03:03:29;14.20;99.90
56076;DHT22;41951;49.022;12.066;2023-10-08T03:05:58;14.20;99.90
56076;DHT22;41951;49.022;12.066;2023-10-08T03:08:23;14.20;99.90
56076;DHT22;41951;49.022;12.066;2023-10-08T03:10:53;14.30;99.90
56076;DHT22;41951;49.022;12.066;2023-10-08T03:13:22;14.20;99.90
56076;DHT22;41951;49.022;12.066;2023-10-08T03:15:48;14.20;99.90
56076;DHT22;41951;49.022;12.066;2023-10-08T03:18:37;14.30;99.90
56076;DHT22;41951;49.022;12.066;2023-10-08T03:21:07;14.30;99.90
56076;DHT22;41951;49.022;12.066;2023-10-08T03:23:46;14.20;99.90
56076;DHT22;41951;49.022;12.066;2023-10-08T03:26:22;14.20;99.90
56076;DHT22;41951;49.022;12.066;2023-10-08T03:28:56;14.20;99.90
56076;DHT22;41951;49.022;12.066;2023-10-08T03:31:25;14.30;99.90
56076;DHT22;41951;49.022;12.066;2023-10-08T03:34:10;14.20;99.90
56076;DHT22;41951;49.022;12.066;2023-10-08T03:36:41;14.20;99.90
56076;DHT22;41951;49.022;12.066;2023-10-08T03:39:10;14.20;99.90
56076;DHT22;41951;49.022;12.066;2023-10-08T03:41:39;14.20;99.90
56076;DHT22;41951;49.022;12.066;2023-10-08T03:44:08;14.20;99.90
56076;DHT22;41951;49.022;12.066;2023-10-08T03:46:42;14.10;99.90
56076;DHT22;41951;49.022;12.066;2023-10-08T03:49:11;14.10;99.90
56076;DHT22;41951;49.022;12.066;2023-10-08T03:51:51;14.20;99.90
56076;DHT22;41951;49.022;12.066;2023-10-08T03:54:23;14.10;99.90
56076;DHT22;41951;49.022;12.066;2023-10-08T03:57:01;14.10;99.90
56076;DHT22;41951;49.022;12.066;2023-10-08T03:59:29;14.10;99.90
56076;DHT22;41951;49.022;12.066;2023-10-08T04:01:55;14.20;99.90
56076;DHT22;41951;49.022;12.066;2023-10-08T04:04:27;14.10;99.90
56076;DHT22;41951;49.022;12.066;2023-10-08T04:07:21;14.10;99.90
56076;DHT22;41951;49.022;12.066;2023-10-08T04:09:50;14.10;99.90
56076;DHT22;41951;49.022;12.066;2023-10-08T04:12:24;14.10;99.90
56076;DHT22;41951;49.022;12.066;2023-10-08T04:14:52;14.10;99.90
56076;DHT22;41951;49.022;12.066;2023-10-08T04:17:21;14.10;99.90
56076;DHT22;41951;49.022;12.066;2023-10-08T04:19:48;14.10;99.90
56076;DHT22;41951;49.022;12.066;2023-10-08T04:22:13;14.00;99.90
56076;DHT22;41951;49.022;12.066;2023-10-08T04:24:43;14.00;99.90
56076;DHT22;41951;49.022;12.066;2023-10-08T04:27:09;14.00;99.90
56076;DHT22;41951;49.022;12.066;2023-10-08T04:29:35;14.00;99.90
56076;DHT22;41951;49.022;12.066;2023-10-08T04:32:03;14.00;99.90
56076;DHT22;41951;49.022;12.066;2023-10-08T04:34:37;13.90;99.90
56076;DHT22;41951;49.022;12.066;2023-10-08T04:37:03;14.00;99.90
56076;DHT22;41951;49.022;12.066;2023-10-08T04:39:39;13.90;99.90
56076;DHT22;41951;49.022;12.066;2023-10-08T04:42:06;13.90;99.90
56076;DHT22;41951;49.022;12.066;2023-10-08T04:44:39;13.90;99.90
56076;DHT22;41951;49.022;12.066;2023-10-08T04:47:07;13.90;99.90
56076;DHT22;41951;49.022;12.066;2023-10-08T04:49:52;13.90;99.90
56076;DHT22;41951;49.022;12.066;2023-10-08T04:52:18;13.90;99.90
56076;DHT22;41951;49.022;12.066;2023-10-08T04:54:45;13.90;99.90
56076;DHT22;41951;49.022;12.066;2023-10-08T04:57:18;13.90;99.90
56076;DHT22;41951;49.022;12.066;2023-10-08T04:59:44;14.00;99.90
56076;DHT22;41951;49.022;12.066;2023-10-08T05:02:12;14.00;99.90
56076;DHT22;41951;49.022;12.066;2023-10-08T05:04:56;13.90;99.90
56076;DHT22;41951;49.022;12.066;2023-10-08T05:07:25;14.10;99.90
56076;DHT22;41951;49.022;12.066;2023-10-08T05:10:10;14.00;99.90
56076;DHT22;41951;49.022;12.066;2023-10-08T05:12:55;14.00;99.90
56076;DHT22;41951;49.022;12.066;2023-10-08T05:15:32;14.00;99.90
56076;DHT22;41951;49.022;12.066;2023-10-08T05:17:59;14.00;99.90
56076;DHT22;41951;49.022;12.066;2023-10-08T05:20:39;14.10;99.90
56076;DHT22;41951;49.022;12.066;2023-10-08T05:23:27;14.10;99.90
56076;DHT22;41951;49.022;12.066;2023-10-08T05:25:54;14.20;99.90
56076;DHT22;41951;49.022;12.066;2023-10-08T05:28:28;14.30;99.90
56076;DHT22;41951;49.022;12.066;2023-10-08T05:30:56;14.50;99.90
56076;DHT22;41951;49.022;12.066;2023-10-08T05:33:41;14.50;99.90
56076;DHT22;41951;49.022;12.066;2023-10-08T05:36:25;14.60;99.90
56076;DHT22;41951;49.022;12.066;2023-10-08T05:38:59;14.60;99.90
56076;DHT22;41951;49.022;12.066;2023-10-08T05:41:54;14.60;99.90
56076;DHT22;41951;49.022;12.066;2023-10-08T05:44:41;14.70;99.90
56076;DHT22;41951;49.022;12.066;2023-10-08T05:47:14;14.80;99.90
56076;DHT22;41951;49.022;12.066;2023-10-08T05:49:59;14.80;99.90
56076;DHT22;41951;49.022;12.066;2023-10-08T05:52:46;15.00;99.90
56076;DHT22;41951;49.022;12.066;2023-10-08T05:55:28;15.10;99.90
56076;DHT22;41951;49.022;12.066;2023-10-08T05:58:06;15.10;99.90
56076;DHT22;41951;49.022;12.066;2023-10-08T06:00:47;15.20;99.90
56076;DHT22;41951;49.022;12.066;2023-10-08T06:03:19;15.30;99.90
56076;DHT22;41951;49.022;12.066;2023-10-08T06:05:48;15.30;99.90
56076;DHT22;41951;49.022;12.066;2023-10-08T06:08:30;15.40;99.90
56076;DHT22;41951;49.022;12.066;2023-10-08T06:11:17;15.40;99.90
56076;DHT22;41951;49.022;12.066;2023-10-08T06:13:56;15.40;99.90
56076;DHT22;41951;49.022;12.066;2023-10-08T06:16:26;15.50;99.90
56076;DHT22;41951;49.022;12.066;2023-10-08T06:19:07;15.50;99.90
56076;DHT22;41951;49.022;12.066;2023-10-08T06:21:36;15.50;99.90
56076;DHT22;41951;49.022;12.066;2023-10-08T06:24:04;15.50;99.90
56076;DHT22;41951;49.022;12.066;2023-10-08T06:26:37;15.50;99.90
56076;DHT22;41951;49.022;12.066;2023-10-08T06:29:14;15.50;99.90
56076;DHT22;41951;49.022;12.066;2023-10-08T06:31:52;15.50;99.90
56076;DHT22;41951;49.022;12.066;2023-10-08T06:34:21;15.60;99.90
56076;DHT22;41951;49.022;12.066;2023-10-08T06:36:49;15.60;99.90
56076;DHT22;41951;49.022;12.066;2023-10-08T06:39:19;15.60;99.90
56076;DHT22;41951;49.022;12.066;2023-10-08T06:41:48;15.70;99.90
56076;DHT22;41951;49.022;12.066;2023-10-08T06:44:17;15.70;99.90
56076;DHT22;41951;49.022;12.066;2023-10-08T06:46:43;15.80;99.90
56076;DHT22;41951;49.022;12.066;2023-10-08T06:49:09;15.80;99.90
56076;DHT22;41951;49.022;12.066;2023-10-08T06:51:39;15.80;99.90
56076;DHT22;41951;49.022;12.066;2023-10-08T06:54:07;15.80;99.90
56076;DHT22;41951;49.022;12.066;2023-10-08T06:56:36;15.80;99.90
56076;DHT22;41951;49.022;12.066;2023-10-08T06:59:02;15.80;99.90
56076;DHT22;41951;49.022;12.066;2023-10-08T07:01:28;15.70;99.90
56076;DHT22;41951;49.022;12.066;2023-10-08T07:04:05;15.60;99.90
56076;DHT22;41951;49.022;12.066;2023-10-08T07:06:32;15.60;99.90
56076;DHT22;41951;49.022;12.066;2023-10-08T07:09:01;15.60;99.90
56076;DHT22;41951;49.022;12.066;2023-10-08T07:11:33;15.60;99.90
56076;DHT22;41951;49.022;12.066;2023-10-08T07:14:01;15.50;99.90
56076;DHT22;41951;49.022;12.066;2023-10-08T07:16:27;15.50;99.90
56076;DHT22;41951;49.022;12.066;2023-10-08T07:18:53;15.40;99.90
56076;DHT22;41951;49.022;12.066;2023-10-08T07:21:26;15.40;99.90
56076;DHT22;41951;49.022;12.066;2023-10-08T07:24:03;15.40;99.90
56076;DHT22;41951;49.022;12.066;2023-10-08T07:26:34;15.40;99.90
56076;DHT22;41951;49.022;12.066;2023-10-08T07:29:03;15.40;99.90
56076;DHT22;41951;49.022;12.066;2023-10-08T07:31:34;15.40;99.90
56076;DHT22;41951;49.022;12.066;2023-10-08T07:34:02;15.40;99.90
56076;DHT22;41951;49.022;12.066;2023-10-08T07:37:03;15.40;99.90
56076;DHT22;41951;49.022;12.066;2023-10-08T07:39:31;15.40;99.90
56076;DHT22;41951;49.022;12.066;2023-10-08T07:41:57;15.40;99.90
56076;DHT22;41951;49.022;12.066;2023-10-08T07:44:25;15.40;99.90
56076;DHT22;41951;49.022;12.066;2023-10-08T07:46:54;15.40;99.90
56076;DHT22;41951;49.022;12.066;2023-10-08T07:49:20;15.50;99.90
56076;DHT22;41951;49.022;12.066;2023-10-08T07:51:49;15.50;99.90
56076;DHT22;41951;49.022;12.066;2023-10-08T07:54:24;15.50;99.90
56076;DHT22;41951;49.022;12.066;2023-10-08T07:56:53;15.50;99.90
56076;DHT22;41951;49.022;12.066;2023-10-08T07:59:41;15.50;99.90
56076;DHT22;41951;49.022;12.066;2023-10-08T08:02:08;15.60;99.90
56076;DHT22;41951;49.022;12.066;2023-10-08T08:04:40;15.60;99.90
56076;DHT22;41951;49.022;12.066;2023-10-08T08:07:07;15.60;99.90
56076;DHT22;41951;49.022;12.066;2023-10-08T08:09:33;15.60;99.90
56076;DHT22;41951;49.022;12.066;2023-10-08T08:12:05;15.60;99.90
56076;DHT22;41951;49.022;12.066;2023-10-08T08:14:33;15.70;99.90
56076;DHT22;41951;49.022;12.066;2023-10-08T08:16:58;15.70;99.90
56076;DHT22;41951;49.022;12.066;2023-10-08T08:19:41;15.70;99.90
56076;DHT22;41951;49.022;12.066;2023-10-08T08:22:10;15.80;99.90
56076;DHT22;41951;49.022;12.066;2023-10-08T08:24:41;15.80;99.90
56076;DHT22;41951;49.022;12.066;2023-10-08T08:27:13;15.80;99.90
56076;DHT22;41951;49.022;12.066;2023-10-08T08:29:57;15.80;99.90
56076;DHT22;41951;49.022;12.066;2023-10-08T08:32:35;15.90;99.90
56076;DHT22;41951;49.022;12.066;2023-10-08T08:35:02;15.90;99.90
56076;DHT22;41951;49.022;12.066;2023-10-08T08:37:33;16.00;99.90
56076;DHT22;41951;49.022;12.066;2023-10-08T08:40:02;16.00;99.90
56076;DHT22;41951;49.022;12.066;2023-10-08T08:42:33;16.10;99.90
56076;DHT22;41951;49.022;12.066;2023-10-08T08:45:03;16.10;99.90
56076;DHT22;41951;49.022;12.066;2023-10-08T08:47:35;16.10;99.90
56076;DHT22;41951;49.022;12.066;2023-10-08T08:50:02;16.20;99.90
56076;DHT22;41951;49.022;12.066;2023-10-08T08:52:35;16.20;99.90
56076;DHT22;41951;49.022;12.066;2023-10-08T08:55:06;16.30;99.90
56076;DHT22;41951;49.022;12.066;2023-10-08T08:57:42;16.30;99.90
56076;DHT22;41951;49.022;12.066;2023-10-08T09:00:11;16.40;99.90
56076;DHT22;41951;49.022;12.066;2023-10-08T09:02:38;16.50;99.90
56076;DHT22;41951;49.022;12.066;2023-10-08T09:05:04;16.70;99.90
56076;DHT22;41951;49.022;12.066;2023-10-08T09:07:56;16.80;99.90
56076;DHT22;41951;49.022;12.066;2023-10-08T09:10:24;17.00;99.90
56076;DHT22;41951;49.022;12.066;2023-10-08T09:12:53;17.20;99.90
56076;DHT22;41951;49.022;12.066;2023-10-08T09:15:20;17.30;99.90
56076;DHT22;41951;49.022;12.066;2023-10-08T09:17:48;17.30;99.90
56076;DHT22;41951;49.022;12.066;2023-10-08T09:20:17;17.40;99.90
56076;DHT22;41951;49.022;12.066;2023-10-08T09:22:45;17.50;99.90
56076;DHT22;41951;49.022;12.066;2023-10-08T09:25:21;17.50;99.90
56076;DHT22;41951;49.022;12.066;2023-10-08T09:27:55;17.60;99.90
56076;DHT22;41951;49.022;12.066;2023-10-08T09:30:21;17.70;99.90
56076;DHT22;41951;49.022;12.066;2023-10-08T09:32:48;17.80;99.90
56076;DHT22;41951;49.022;12.066;2023-10-08T09:35:15;17.80;99.90
56076;DHT22;41951;49.022;12.066;2023-10-08T09:37:41;17.70;99.90
56076;DHT22;41951;49.022;12.066;2023-10-08T09:40:08;17.80;99.90
56076;DHT22;41951;49.022;12.066;2023-10-08T09:42:37;17.80;99.90
56076;DHT22;41951;49.022;12.066;2023-10-08T09:45:04;17.80;99.90
56076;DHT22;41951;49.022;12.066;2023-10-08T09:47:36;17.70;99.90
56076;DHT22;41951;49.022;12.066;2023-10-08T09:50:04;17.70;99.90
56076;DHT22;41951;49.022;12.066;2023-10-08T09:52:49;17.60;99.90
56076;DHT22;41951;49.022;12.066;2023-10-08T09:55:19;17.60;99.90
56076;DHT22;41951;49.022;12.066;2023-10-08T09:57:45;17.60;99.90
56076;DHT22;41951;49.022;12.066;2023-10-08T10:00:12;17.60;99.90
56076;DHT22;41951;49.022;12.066;2023-10-08T10:02:44;17.60;99.90
56076;DHT22;41951;49.022;12.066;2023-10-08T10:05:11;17.60;99.90
56076;DHT22;41951;49.022;12.066;2023-10-08T10:07:37;17.60;99.90
56076;DHT22;41951;49.022;12.066;2023-10-08T10:10:25;17.60;99.90
56076;DHT22;41951;49.022;12.066;2023-10-08T10:12:59;17.60;99.90
56076;DHT22;41951;49.022;12.066;2023-10-08T10:15:25;17.60;99.90
56076;DHT22;41951;49.022;12.066;2023-10-08T10:17:51;17.60;99.90
56076;DHT22;41951;49.022;12.066;2023-10-08T10:20:17;17.60;99.90
56076;DHT22;41951;49.022;12.066;2023-10-08T10:22:45;17.60;99.90
56076;DHT22;41951;49.022;12.066;2023-10-08T10:25:11;17.50;99.90
56076;DHT22;41951;49.022;12.066;2023-10-08T10:30:24;17.60;99.90
56076;DHT22;41951;49.022;12.066;2023-10-08T10:32:53;17.60;99.90
56076;DHT22;41951;49.022;12.066;2023-10-08T10:35:19;17.70;99.90
56076;DHT22;41951;49.022;12.066;2023-10-08T10:37:48;17.70;99.90
56076;DHT22;41951;49.022;12.066;2023-10-08T10:40:24;17.80;99.90
56076;DHT22;41951;49.022;12.066;2023-10-08T10:43:05;17.80;99.90
56076;DHT22;41951;49.022;12.066;2023-10-08T10:45:32;18.00;99.90
56076;DHT22;41951;49.022;12.066;2023-10-08T10:48:04;18.00;99.90
56076;DHT22;41951;49.022;12.066;2023-10-08T10:50:41;18.00;99.90
56076;DHT22;41951;49.022;12.066;2023-10-08T10:53:25;18.10;99.90
56076;DHT22;41951;49.022;12.066;2023-10-08T10:55:52;18.20;99.90
56076;DHT22;41951;49.022;12.066;2023-10-08T10:58:28;18.20;99.90
56076;DHT22;41951;49.022;12.066;2023-10-08T11:01:04;18.20;99.90
56076;DHT22;41951;49.022;12.066;2023-10-08T11:03:48;18.20;99.90
56076;DHT22;41951;49.022;12.066;2023-10-08T11:06:17;18.30;99.90
56076;DHT22;41951;49.022;12.066;2023-10-08T11:08:51;18.30;99.90
56076;DHT22;41951;49.022;12.066;2023-10-08T11:11:18;18.30;99.90
56076;DHT22;41951;49.022;12.066;2023-10-08T11:13:44;18.40;99.90
56076;DHT22;41951;49.022;12.066;2023-10-08T11:16:17;18.50;99.90
56076;DHT22;41951;49.022;12.066;2023-10-08T11:18:47;18.40;99.90
56076;DHT22;41951;49.022;12.066;2023-10-08T11:21:15;18.40;99.90
56076;DHT22;41951;49.022;12.066;2023-10-08T11:23:48;18.50;99.90
56076;DHT22;41951;49.022;12.066;2023-10-08T11:26:37;18.70;99.90
56076;DHT22;41951;49.022;12.066;2023-10-08T11:29:19;18.70;99.90
56076;DHT22;41951;49.022;12.066;2023-10-08T11:31:51;18.60;99.90
56076;DHT22;41951;49.022;12.066;2023-10-08T11:34:16;18.50;99.90
56076;DHT22;41951;49.022;12.066;2023-10-08T11:36:52;18.50;99.90
56076;DHT22;41951;49.022;12.066;2023-10-08T11:39:18;18.40;99.90
56076;DHT22;41951;49.022;12.066;2023-10-08T11:42:01;18.50;99.90
56076;DHT22;41951;49.022;12.066;2023-10-08T11:44:32;18.50;99.90
56076;DHT22;41951;49.022;12.066;2023-10-08T11:47:01;18.50;99.90
56076;DHT22;41951;49.022;12.066;2023-10-08T11:49:36;18.60;99.90
56076;DHT22;41951;49.022;12.066;2023-10-08T11:52:02;18.70;99.90
56076;DHT22;41951;49.022;12.066;2023-10-08T11:54:29;18.80;99.90
56076;DHT22;41951;49.022;12.066;2023-10-08T11:56:59;18.90;99.90
56076;DHT22;41951;49.022;12.066;2023-10-08T11:59:26;18.90;99.90
56076;DHT22;41951;49.022;12.066;2023-10-08T12:01:51;18.80;99.90
56076;DHT22;41951;49.022;12.066;2023-10-08T12:04:17;18.80;99.90
56076;DHT22;41951;49.022;12.066;2023-10-08T12:06:43;18.70;99.90
56076;DHT22;41951;49.022;12.066;2023-10-08T12:09:15;18.70;99.90
56076;DHT22;41951;49.022;12.066;2023-10-08T12:11:41;18.80;99.90
56076;DHT22;41951;49.022;12.066;2023-10-08T12:14:08;18.80;99.90
56076;DHT22;41951;49.022;12.066;2023-10-08T12:16:34;18.80;99.90
56076;DHT22;41951;49.022;12.066;2023-10-08T12:19:04;18.90;99.90
56076;DHT22;41951;49.022;12.066;2023-10-08T12:21:41;19.00;99.90
56076;DHT22;41951;49.022;12.066;2023-10-08T12:24:07;19.10;99.90
56076;DHT22;41951;49.022;12.066;2023-10-08T12:26:35;19.10;99.90
56076;DHT22;41951;49.022;12.066;2023-10-08T12:29:01;19.10;99.90
56076;DHT22;41951;49.022;12.066;2023-10-08T12:31:27;19.10;99.90
56076;DHT22;41951;49.022;12.066;2023-10-08T12:33:54;19.20;99.90
56076;DHT22;41951;49.022;12.066;2023-10-08T12:36:26;19.20;99.90
56076;DHT22;41951;49.022;12.066;2023-10-08T12:38:58;19.30;99.90
56076;DHT22;41951;49.022;12.066;2023-10-08T12:41:24;19.10;99.90
56076;DHT22;41951;49.022;12.066;2023-10-08T12:43:52;19.20;99.90
56076;DHT22;41951;49.022;12.066;2023-10-08T12:46:18;19.20;99.90
56076;DHT22;41951;49.022;12.066;2023-10-08T12:48:47;19.10;99.90
56076;DHT22;41951;49.022;12.066;2023-10-08T12:51:18;19.20;99.90
56076;DHT22;41951;49.022;12.066;2023-10-08T12:53:44;19.20;99.90
56076;DHT22;41951;49.022;12.066;2023-10-08T12:56:16;19.20;99.90
56076;DHT22;41951;49.022;12.066;2023-10-08T12:58:43;19.50;99.90
56076;DHT22;41951;49.022;12.066;2023-10-08T13:01:18;19.80;99.90
56076;DHT22;41951;49.022;12.066;2023-10-08T13:03:46;20.10;99.90
56076;DHT22;41951;49.022;12.066;2023-10-08T13:06:17;20.50;99.90
56076;DHT22;41951;49.022;12.066;2023-10-08T13:08:57;20.50;99.90
56076;DHT22;41951;49.022;12.066;2023-10-08T13:11:24;20.40;99.90
56076;DHT22;41951;49.022;12.066;2023-10-08T13:13:50;20.30;99.90
56076;DHT22;41951;49.022;12.066;2023-10-08T13:16:17;20.20;99.90
56076;DHT22;41951;49.022;12.066;2023-10-08T13:18:43;20.40;99.90
56076;DHT22;41951;49.022;12.066;2023-10-08T13:21:09;20.50;99.90
56076;DHT22;41951;49.022;12.066;2023-10-08T13:23:36;20.50;99.90
56076;DHT22;41951;49.022;12.066;2023-10-08T13:26:02;20.50;99.90
56076;DHT22;41951;49.022;12.066;2023-10-08T13:28:32;20.90;99.90
56076;DHT22;41951;49.022;12.066;2023-10-08T13:31:00;20.80;99.90
56076;DHT22;41951;49.022;12.066;2023-10-08T13:33:26;21.00;99.90
56076;DHT22;41951;49.022;12.066;2023-10-08T13:35:52;21.10;99.90
56076;DHT22;41951;49.022;12.066;2023-10-08T13:38:20;21.20;99.90
56076;DHT22;41951;49.022;12.066;2023-10-08T13:40:49;21.30;99.90
56076;DHT22;41951;49.022;12.066;2023-10-08T13:43:34;21.20;99.90
56076;DHT22;41951;49.022;12.066;2023-10-08T13:46:07;21.40;99.90
56076;DHT22;41951;49.022;12.066;2023-10-08T13:48:38;21.30;99.90
56076;DHT22;41951;49.022;12.066;2023-10-08T13:51:04;21.40;99.90
56076;DHT22;41951;49.022;12.066;2023-10-08T13:53:31;21.70;99.90
56076;DHT22;41951;49.022;12.066;2023-10-08T13:56:01;22.10;99.90
56076;DHT22;41951;49.022;12.066;2023-10-08T13:58:28;22.30;99.90
56076;DHT22;41951;49.022;12.066;2023-10-08T14:00:57;22.50;99.90
56076;DHT22;41951;49.022;12.066;2023-10-08T14:03:28;23.10;99.90
56076;DHT22;41951;49.022;12.066;2023-10-08T14:05:59;23.60;99.90
56076;DHT22;41951;49.022;12.066;2023-10-08T14:08:30;23.30;99.90
56076;DHT22;41951;49.022;12.066;2023-10-08T14:10:57;22.90;99.90
56076;DHT22;41951;49.022;12.066;2023-10-08T14:13:29;22.40;99.90
56076;DHT22;41951;49.022;12.066;2023-10-08T14:15:57;21.70;99.90
56076;DHT22;41951;49.022;12.066;2023-10-08T14:18:23;21.20;99.90
56076;DHT22;41951;49.022;12.066;2023-10-08T14:20:54;20.80;99.90
56076;DHT22;41951;49.022;12.066;2023-10-08T14:23:23;20.20;99.90
56076;DHT22;41951;49.022;12.066;2023-10-08T14:25:51;19.90;99.90
56076;DHT22;41951;49.022;12.066;2023-10-08T14:28:20;19.70;99.90
56076;DHT22;41951;49.022;12.066;2023-10-08T14:31:05;19.50;99.90
56076;DHT22;41951;49.022;12.066;2023-10-08T14:33:31;19.30;99.90
56076;DHT22;41951;49.022;12.066;2023-10-08T14:36:07;19.10;99.90
56076;DHT22;41951;49.022;12.066;2023-10-08T14:38:51;19.00;99.90
56076;DHT22;41951;49.022;12.066;2023-10-08T14:41:35;18.80;99.90
56076;DHT22;41951;49.022;12.066;2023-10-08T14:44:19;18.70;99.90
56076;DHT22;41951;49.022;12.066;2023-10-08T14:46:45;18.60;99.90
56076;DHT22;41951;49.022;12.066;2023-10-08T14:49:10;18.50;99.90
56076;DHT22;41951;49.022;12.066;2023-10-08T14:51:37;18.40;99.90
56076;DHT22;41951;49.022;12.066;2023-10-08T14:54:05;18.30;99.90
56076;DHT22;41951;49.022;12.066;2023-10-08T14:56:33;18.20;99.90
56076;DHT22;41951;49.022;12.066;2023-10-08T14:59:00;18.10;99.90
56076;DHT22;41951;49.022;12.066;2023-10-08T15:01:26;18.10;99.90
56076;DHT22;41951;49.022;12.066;2023-10-08T15:03:52;18.00;99.90
56076;DHT22;41951;49.022;12.066;2023-10-08T15:06:18;17.90;99.90
56076;DHT22;41951;49.022;12.066;2023-10-08T15:08:46;17.90;99.90
56076;DHT22;41951;49.022;12.066;2023-10-08T15:11:11;17.80;99.90
56076;DHT22;41951;49.022;12.066;2023-10-08T15:13:37;17.80;99.90
56076;DHT22;41951;49.022;12.066;2023-10-08T15:16:06;17.80;99.90
56076;DHT22;41951;49.022;12.066;2023-10-08T15:18:31;17.70;99.90
56076;DHT22;41951;49.022;12.066;2023-10-08T15:20:58;17.60;99.90
56076;DHT22;41951;49.022;12.066;2023-10-08T15:23:24;17.60;99.90
56076;DHT22;41951;49.022;12.066;2023-10-08T15:25:53;17.50;99.90
56076;DHT22;41951;49.022;12.066;2023-10-08T15:28:19;17.50;99.90
56076;DHT22;41951;49.022;12.066;2023-10-08T15:30:45;17.40;99.90
56076;DHT22;41951;49.022;12.066;2023-10-08T15:33:11;17.40;99.90
56076;DHT22;41951;49.022;12.066;2023-10-08T15:35:38;17.40;99.90
56076;DHT22;41951;49.022;12.066;2023-10-08T15:38:05;17.30;99.90
56076;DHT22;41951;49.022;12.066;2023-10-08T15:40:31;17.30;99.90